sensor_id;sensor_type;location;lat;lon;timestamp;P1;durP1;ratioP1;P2;durP2;ratioP2
55537;SDS011;41383;51.418;7.286;2023-02-28T00:00:45;9.48;;;5.15;;
55537;SDS011;41383;51.418;7.286;2023-02-28T00:03:10;8.77;;;5.60;;
55537;SDS011;41383;51.418;7.286;2023-02-28T00:05:35;9.52;;;5.05;;
55537;SDS011;41383;51.418;7.286;2023-02-28T00:08:01;9.38;;;4.35;;
55537;SDS011;41383;51.418;7.286;2023-02-28T00:10:27;10.00;;;5.10;;
55537;SDS011;41383;51.418;7.286;2023-02-28T00:12:55;8.82;;;4.47;;
55537;SDS011;41383;51.418;7.286;2023-02-28T00:15:24;8.23;;;4.88;;
55537;SDS011;41383;51.418;7.286;2023-02-28T00:17:49;11.05;;;4.38;;
55537;SDS011;41383;51.418;7.286;2023-02-28T00:20:15;8.38;;;4.57;;
55537;SDS011;41383;51.418;7.286;2023-02-28T00:22:42;9.25;;;5.35;;
55537;SDS011;41383;51.418;7.286;2023-02-28T00:25:09;10.57;;;5.25;;
55537;SDS011;41383;51.418;7.286;2023-02-28T00:27:36;16.45;;;5.13;;
55537;SDS011;41383;51.418;7.286;2023-02-28T00:30:03;8.80;;;5.18;;
55537;SDS011;41383;51.418;7.286;2023-02-28T00:32:29;9.05;;;4.15;;
55537;SDS011;41383;51.418;7.286;2023-02-28T00:34:55;8.60;;;4.40;;
55537;SDS011;41383;51.418;7.286;2023-02-28T00:37:20;7.82;;;4.38;;
55537;SDS011;41383;51.418;7.286;2023-02-28T00:39:45;16.63;;;5.83;;
55537;SDS011;41383;51.418;7.286;2023-02-28T00:42:11;9.67;;;4.37;;
55537;SDS011;41383;51.418;7.286;2023-02-28T00:44:36;10.10;;;4.22;;
55537;SDS011;41383;51.418;7.286;2023-02-28T00:47:01;10.07;;;4.43;;
55537;SDS011;41383;51.418;7.286;2023-02-28T00:49:26;8.53;;;5.70;;
55537;SDS011;41383;51.418;7.286;2023-02-28T00:51:53;9.88;;;4.97;;
55537;SDS011;41383;51.418;7.286;2023-02-28T00:54:19;8.60;;;5.40;;
55537;SDS011;41383;51.418;7.286;2023-02-28T00:56:45;15.00;;;5.38;;
55537;SDS011;41383;51.418;7.286;2023-02-28T00:59:14;8.52;;;4.15;;
55537;SDS011;41383;51.418;7.286;2023-02-28T01:01:40;11.23;;;6.20;;
55537;SDS011;41383;51.418;7.286;2023-02-28T01:04:07;11.75;;;5.68;;
55537;SDS011;41383;51.418;7.286;2023-02-28T01:06:32;6.50;;;4.15;;
55537;SDS011;41383;51.418;7.286;2023-02-28T01:08:58;10.55;;;4.43;;
55537;SDS011;41383;51.418;7.286;2023-02-28T01:11:24;8.60;;;4.47;;
55537;SDS011;41383;51.418;7.286;2023-02-28T01:13:49;8.13;;;4.18;;
55537;SDS011;41383;51.418;7.286;2023-02-28T01:16:15;9.57;;;4.55;;
55537;SDS011;41383;51.418;7.286;2023-02-28T01:18:40;8.55;;;4.78;;
55537;SDS011;41383;51.418;7.286;2023-02-28T01:21:09;8.77;;;5.00;;
55537;SDS011;41383;51.418;7.286;2023-02-28T01:23:37;10.75;;;5.35;;
55537;SDS011;41383;51.418;7.286;2023-02-28T01:26:13;10.77;;;5.75;;
55537;SDS011;41383;51.418;7.286;2023-02-28T01:28:43;11.60;;;6.50;;
55537;SDS011;41383;51.418;7.286;2023-02-28T01:31:09;11.45;;;6.63;;
55537;SDS011;41383;51.418;7.286;2023-02-28T01:33:35;16.92;;;6.57;;
55537;SDS011;41383;51.418;7.286;2023-02-28T01:36:02;11.75;;;4.75;;
55537;SDS011;41383;51.418;7.286;2023-02-28T01:38:30;10.27;;;6.10;;
55537;SDS011;41383;51.418;7.286;2023-02-28T01:40:55;12.20;;;6.85;;
55537;SDS011;41383;51.418;7.286;2023-02-28T01:43:22;10.20;;;5.27;;
55537;SDS011;41383;51.418;7.286;2023-02-28T01:45:49;12.63;;;6.10;;
55537;SDS011;41383;51.418;7.286;2023-02-28T01:48:15;8.55;;;5.05;;
55537;SDS011;41383;51.418;7.286;2023-02-28T01:50:43;10.77;;;4.65;;
55537;SDS011;41383;51.418;7.286;2023-02-28T01:53:12;8.85;;;4.72;;
55537;SDS011;41383;51.418;7.286;2023-02-28T01:55:42;11.63;;;4.70;;
55537;SDS011;41383;51.418;7.286;2023-02-28T01:58:11;12.07;;;5.30;;
55537;SDS011;41383;51.418;7.286;2023-02-28T02:00:37;9.70;;;4.63;;
55537;SDS011;41383;51.418;7.286;2023-02-28T02:03:08;9.73;;;5.13;;
55537;SDS011;41383;51.418;7.286;2023-02-28T02:05:36;8.38;;;4.88;;
55537;SDS011;41383;51.418;7.286;2023-02-28T02:08:04;8.93;;;5.38;;
55537;SDS011;41383;51.418;7.286;2023-02-28T02:10:42;10.75;;;5.05;;
55537;SDS011;41383;51.418;7.286;2023-02-28T02:13:14;13.18;;;5.25;;
55537;SDS011;41383;51.418;7.286;2023-02-28T02:16:00;8.77;;;5.15;;
55537;SDS011;41383;51.418;7.286;2023-02-28T02:18:46;14.27;;;5.85;;
55537;SDS011;41383;51.418;7.286;2023-02-28T02:21:28;12.88;;;6.30;;
55537;SDS011;41383;51.418;7.286;2023-02-28T02:26:45;9.57;;;4.63;;
55537;SDS011;41383;51.418;7.286;2023-02-28T02:34:59;12.88;;;5.97;;
55537;SDS011;41383;51.418;7.286;2023-02-28T02:37:38;7.78;;;4.43;;
55537;SDS011;41383;51.418;7.286;2023-02-28T02:40:20;10.32;;;5.70;;
55537;SDS011;41383;51.418;7.286;2023-02-28T02:42:59;10.02;;;5.15;;
55537;SDS011;41383;51.418;7.286;2023-02-28T02:45:40;13.70;;;5.90;;
55537;SDS011;41383;51.418;7.286;2023-02-28T02:48:23;14.95;;;6.22;;
55537;SDS011;41383;51.418;7.286;2023-02-28T02:50:54;8.40;;;4.18;;
55537;SDS011;41383;51.418;7.286;2023-02-28T02:53:24;9.77;;;4.22;;
55537;SDS011;41383;51.418;7.286;2023-02-28T02:55:54;10.07;;;5.22;;
55537;SDS011;41383;51.418;7.286;2023-02-28T02:58:24;12.82;;;5.32;;
55537;SDS011;41383;51.418;7.286;2023-02-28T03:00:56;12.65;;;6.68;;
55537;SDS011;41383;51.418;7.286;2023-02-28T03:03:25;15.40;;;7.18;;
55537;SDS011;41383;51.418;7.286;2023-02-28T03:05:55;12.07;;;6.97;;
55537;SDS011;41383;51.418;7.286;2023-02-28T03:08:22;11.90;;;5.10;;
55537;SDS011;41383;51.418;7.286;2023-02-28T03:10:48;9.82;;;5.38;;
55537;SDS011;41383;51.418;7.286;2023-02-28T03:16:13;11.20;;;4.75;;
55537;SDS011;41383;51.418;7.286;2023-02-28T03:19:00;8.27;;;3.90;;
55537;SDS011;41383;51.418;7.286;2023-02-28T03:21:37;11.23;;;5.00;;
55537;SDS011;41383;51.418;7.286;2023-02-28T03:26:52;6.65;;;4.07;;
55537;SDS011;41383;51.418;7.286;2023-02-28T03:29:29;9.73;;;4.60;;
55537;SDS011;41383;51.418;7.286;2023-02-28T03:32:03;12.68;;;3.40;;
55537;SDS011;41383;51.418;7.286;2023-02-28T03:34:37;9.20;;;4.57;;
55537;SDS011;41383;51.418;7.286;2023-02-28T03:37:11;11.07;;;4.78;;
55537;SDS011;41383;51.418;7.286;2023-02-28T03:39:56;6.63;;;3.85;;
55537;SDS011;41383;51.418;7.286;2023-02-28T03:42:26;7.90;;;3.20;;
55537;SDS011;41383;51.418;7.286;2023-02-28T03:44:55;5.93;;;3.20;;
55537;SDS011;41383;51.418;7.286;2023-02-28T03:50:14;6.63;;;3.35;;
55537;SDS011;41383;51.418;7.286;2023-02-28T03:52:47;8.45;;;4.03;;
55537;SDS011;41383;51.418;7.286;2023-02-28T03:55:16;10.10;;;4.05;;
55537;SDS011;41383;51.418;7.286;2023-02-28T03:58:05;9.10;;;3.95;;
55537;SDS011;41383;51.418;7.286;2023-02-28T04:00:34;8.27;;;4.28;;
55537;SDS011;41383;51.418;7.286;2023-02-28T04:03:04;8.00;;;3.50;;
55537;SDS011;41383;51.418;7.286;2023-02-28T04:05:30;9.30;;;3.95;;
55537;SDS011;41383;51.418;7.286;2023-02-28T04:08:05;7.90;;;4.28;;
55537;SDS011;41383;51.418;7.286;2023-02-28T04:10:32;12.40;;;4.32;;
55537;SDS011;41383;51.418;7.286;2023-02-28T04:12:58;8.25;;;4.07;;
55537;SDS011;41383;51.418;7.286;2023-02-28T04:15:23;11.00;;;4.32;;
55537;SDS011;41383;51.418;7.286;2023-02-28T04:17:49;8.85;;;4.55;;
55537;SDS011;41383;51.418;7.286;2023-02-28T04:20:15;9.32;;;5.05;;
55537;SDS011;41383;51.418;7.286;2023-02-28T04:22:40;6.75;;;4.82;;
55537;SDS011;41383;51.418;7.286;2023-02-28T04:25:06;10.87;;;6.27;;
55537;SDS011;41383;51.418;7.286;2023-02-28T04:27:31;10.88;;;6.32;;
55537;SDS011;41383;51.418;7.286;2023-02-28T04:29:57;10.23;;;6.07;;
55537;SDS011;41383;51.418;7.286;2023-02-28T04:32:22;14.53;;;6.83;;
55537;SDS011;41383;51.418;7.286;2023-02-28T04:34:47;14.00;;;6.00;;
55537;SDS011;41383;51.418;7.286;2023-02-28T04:37:12;14.50;;;6.60;;
55537;SDS011;41383;51.418;7.286;2023-02-28T04:39:38;10.17;;;4.67;;
55537;SDS011;41383;51.418;7.286;2023-02-28T04:42:03;8.13;;;5.28;;
55537;SDS011;41383;51.418;7.286;2023-02-28T04:44:29;12.75;;;6.57;;
55537;SDS011;41383;51.418;7.286;2023-02-28T04:46:54;10.60;;;5.23;;
55537;SDS011;41383;51.418;7.286;2023-02-28T04:49:20;10.90;;;4.53;;
55537;SDS011;41383;51.418;7.286;2023-02-28T04:51:45;11.27;;;5.10;;
55537;SDS011;41383;51.418;7.286;2023-02-28T04:54:10;11.73;;;4.30;;
55537;SDS011;41383;51.418;7.286;2023-02-28T04:56:35;8.90;;;4.47;;
55537;SDS011;41383;51.418;7.286;2023-02-28T04:59:01;6.50;;;3.43;;
55537;SDS011;41383;51.418;7.286;2023-02-28T05:01:27;11.10;;;5.68;;
55537;SDS011;41383;51.418;7.286;2023-02-28T05:03:55;6.95;;;3.90;;
55537;SDS011;41383;51.418;7.286;2023-02-28T05:06:21;6.75;;;3.33;;
55537;SDS011;41383;51.418;7.286;2023-02-28T05:08:49;6.93;;;3.88;;
55537;SDS011;41383;51.418;7.286;2023-02-28T05:11:28;8.73;;;4.47;;
55537;SDS011;41383;51.418;7.286;2023-02-28T05:13:58;9.20;;;3.80;;
55537;SDS011;41383;51.418;7.286;2023-02-28T05:16:23;7.28;;;3.47;;
55537;SDS011;41383;51.418;7.286;2023-02-28T05:18:49;9.02;;;4.35;;
55537;SDS011;41383;51.418;7.286;2023-02-28T05:21:56;11.77;;;4.10;;
55537;SDS011;41383;51.418;7.286;2023-02-28T05:24:05;7.38;;;4.07;;
55537;SDS011;41383;51.418;7.286;2023-02-28T05:26:34;8.82;;;4.38;;
55537;SDS011;41383;51.418;7.286;2023-02-28T05:29:01;9.50;;;5.05;;
55537;SDS011;41383;51.418;7.286;2023-02-28T05:31:27;9.55;;;4.88;;
55537;SDS011;41383;51.418;7.286;2023-02-28T05:33:52;10.32;;;4.57;;
55537;SDS011;41383;51.418;7.286;2023-02-28T05:36:17;9.38;;;4.57;;
55537;SDS011;41383;51.418;7.286;2023-02-28T05:38:43;8.32;;;4.38;;
55537;SDS011;41383;51.418;7.286;2023-02-28T05:41:14;12.20;;;4.70;;
55537;SDS011;41383;51.418;7.286;2023-02-28T05:43:39;9.02;;;4.00;;
55537;SDS011;41383;51.418;7.286;2023-02-28T05:46:08;14.13;;;5.32;;
55537;SDS011;41383;51.418;7.286;2023-02-28T05:48:35;8.98;;;3.72;;
55537;SDS011;41383;51.418;7.286;2023-02-28T05:51:03;11.45;;;5.22;;
55537;SDS011;41383;51.418;7.286;2023-02-28T05:53:29;12.63;;;6.15;;
55537;SDS011;41383;51.418;7.286;2023-02-28T05:55:55;9.73;;;4.43;;
55537;SDS011;41383;51.418;7.286;2023-02-28T05:58:20;8.80;;;4.10;;
55537;SDS011;41383;51.418;7.286;2023-02-28T06:00:46;8.65;;;4.22;;
55537;SDS011;41383;51.418;7.286;2023-02-28T06:03:12;11.65;;;5.30;;
55537;SDS011;41383;51.418;7.286;2023-02-28T06:05:37;16.83;;;5.15;;
55537;SDS011;41383;51.418;7.286;2023-02-28T06:08:03;12.43;;;4.63;;
55537;SDS011;41383;51.418;7.286;2023-02-28T06:10:31;10.63;;;6.07;;
55537;SDS011;41383;51.418;7.286;2023-02-28T06:12:59;13.90;;;6.22;;
55537;SDS011;41383;51.418;7.286;2023-02-28T06:15:25;13.65;;;5.95;;
55537;SDS011;41383;51.418;7.286;2023-02-28T06:17:50;14.83;;;6.80;;
55537;SDS011;41383;51.418;7.286;2023-02-28T06:20:17;7.97;;;5.30;;
55537;SDS011;41383;51.418;7.286;2023-02-28T06:22:42;15.63;;;6.18;;
55537;SDS011;41383;51.418;7.286;2023-02-28T06:25:08;11.05;;;5.25;;
55537;SDS011;41383;51.418;7.286;2023-02-28T06:27:34;11.07;;;4.82;;
55537;SDS011;41383;51.418;7.286;2023-02-28T06:30:00;11.33;;;5.30;;
55537;SDS011;41383;51.418;7.286;2023-02-28T06:32:25;10.43;;;5.07;;
55537;SDS011;41383;51.418;7.286;2023-02-28T06:34:50;10.07;;;5.60;;
55537;SDS011;41383;51.418;7.286;2023-02-28T06:37:16;13.27;;;5.45;;
55537;SDS011;41383;51.418;7.286;2023-02-28T06:39:42;11.20;;;4.57;;
55537;SDS011;41383;51.418;7.286;2023-02-28T06:42:07;13.98;;;6.60;;
55537;SDS011;41383;51.418;7.286;2023-02-28T06:44:32;17.15;;;7.22;;
55537;SDS011;41383;51.418;7.286;2023-02-28T06:46:59;7.40;;;4.78;;
55537;SDS011;41383;51.418;7.286;2023-02-28T06:49:30;15.32;;;6.20;;
55537;SDS011;41383;51.418;7.286;2023-02-28T06:51:56;12.52;;;5.72;;
55537;SDS011;41383;51.418;7.286;2023-02-28T06:54:21;9.90;;;5.57;;
55537;SDS011;41383;51.418;7.286;2023-02-28T06:56:46;8.27;;;4.55;;
55537;SDS011;41383;51.418;7.286;2023-02-28T06:59:12;14.95;;;6.25;;
55537;SDS011;41383;51.418;7.286;2023-02-28T07:01:37;13.60;;;6.43;;
55537;SDS011;41383;51.418;7.286;2023-02-28T07:04:04;10.85;;;6.25;;
55537;SDS011;41383;51.418;7.286;2023-02-28T07:06:30;12.93;;;6.72;;
55537;SDS011;41383;51.418;7.286;2023-02-28T07:08:56;9.90;;;5.93;;
55537;SDS011;41383;51.418;7.286;2023-02-28T07:11:22;11.50;;;5.93;;
55537;SDS011;41383;51.418;7.286;2023-02-28T07:13:50;12.30;;;6.15;;
55537;SDS011;41383;51.418;7.286;2023-02-28T07:16:15;31.52;;;6.93;;
55537;SDS011;41383;51.418;7.286;2023-02-28T07:18:41;12.20;;;7.32;;
55537;SDS011;41383;51.418;7.286;2023-02-28T07:21:07;10.90;;;5.30;;
55537;SDS011;41383;51.418;7.286;2023-02-28T07:23:34;10.13;;;5.90;;
55537;SDS011;41383;51.418;7.286;2023-02-28T07:26:00;24.38;;;4.93;;
55537;SDS011;41383;51.418;7.286;2023-02-28T07:28:26;12.45;;;7.32;;
55537;SDS011;41383;51.418;7.286;2023-02-28T07:30:51;11.00;;;5.22;;
55537;SDS011;41383;51.418;7.286;2023-02-28T07:33:17;20.80;;;7.25;;
55537;SDS011;41383;51.418;7.286;2023-02-28T07:35:42;10.80;;;5.82;;
55537;SDS011;41383;51.418;7.286;2023-02-28T07:38:07;12.45;;;5.80;;
55537;SDS011;41383;51.418;7.286;2023-02-28T07:40:34;9.70;;;4.93;;
55537;SDS011;41383;51.418;7.286;2023-02-28T07:43:00;15.80;;;5.15;;
55537;SDS011;41383;51.418;7.286;2023-02-28T07:45:26;16.00;;;6.80;;
55537;SDS011;41383;51.418;7.286;2023-02-28T07:47:51;11.50;;;6.18;;
55537;SDS011;41383;51.418;7.286;2023-02-28T07:50:17;9.43;;;4.93;;
55537;SDS011;41383;51.418;7.286;2023-02-28T07:52:42;8.65;;;4.22;;
55537;SDS011;41383;51.418;7.286;2023-02-28T07:55:08;9.52;;;5.72;;
55537;SDS011;41383;51.418;7.286;2023-02-28T07:57:34;14.60;;;6.28;;
55537;SDS011;41383;51.418;7.286;2023-02-28T08:00:00;10.50;;;6.38;;
55537;SDS011;41383;51.418;7.286;2023-02-28T08:02:26;11.00;;;6.50;;
55537;SDS011;41383;51.418;7.286;2023-02-28T08:04:51;17.13;;;6.87;;
55537;SDS011;41383;51.418;7.286;2023-02-28T08:07:17;21.85;;;6.53;;
55537;SDS011;41383;51.418;7.286;2023-02-28T08:09:43;13.77;;;5.50;;
55537;SDS011;41383;51.418;7.286;2023-02-28T08:12:09;11.05;;;6.68;;
55537;SDS011;41383;51.418;7.286;2023-02-28T08:14:35;12.32;;;5.82;;
55537;SDS011;41383;51.418;7.286;2023-02-28T08:17:01;9.80;;;5.88;;
55537;SDS011;41383;51.418;7.286;2023-02-28T08:19:27;12.07;;;6.05;;
55537;SDS011;41383;51.418;7.286;2023-02-28T08:21:53;14.35;;;6.15;;
55537;SDS011;41383;51.418;7.286;2023-02-28T08:24:18;10.38;;;4.78;;
55537;SDS011;41383;51.418;7.286;2023-02-28T08:26:43;9.03;;;5.40;;
55537;SDS011;41383;51.418;7.286;2023-02-28T08:29:08;12.43;;;5.85;;
55537;SDS011;41383;51.418;7.286;2023-02-28T08:31:34;10.50;;;4.63;;
55537;SDS011;41383;51.418;7.286;2023-02-28T08:34:00;15.10;;;5.88;;
55537;SDS011;41383;51.418;7.286;2023-02-28T08:36:30;13.07;;;5.72;;
55537;SDS011;41383;51.418;7.286;2023-02-28T08:38:56;11.70;;;5.57;;
55537;SDS011;41383;51.418;7.286;2023-02-28T08:41:21;12.00;;;5.30;;
55537;SDS011;41383;51.418;7.286;2023-02-28T08:43:47;15.20;;;5.70;;
55537;SDS011;41383;51.418;7.286;2023-02-28T08:46:12;10.82;;;5.63;;
55537;SDS011;41383;51.418;7.286;2023-02-28T08:48:39;10.43;;;6.20;;
55537;SDS011;41383;51.418;7.286;2023-02-28T08:51:08;10.02;;;5.88;;
55537;SDS011;41383;51.418;7.286;2023-02-28T08:53:36;18.92;;;6.32;;
55537;SDS011;41383;51.418;7.286;2023-02-28T08:56:03;9.13;;;5.40;;
55537;SDS011;41383;51.418;7.286;2023-02-28T08:58:36;11.48;;;5.80;;
55537;SDS011;41383;51.418;7.286;2023-02-28T09:03:57;10.27;;;6.60;;
55537;SDS011;41383;51.418;7.286;2023-02-28T09:06:23;14.30;;;6.28;;
55537;SDS011;41383;51.418;7.286;2023-02-28T09:08:50;10.30;;;5.75;;
55537;SDS011;41383;51.418;7.286;2023-02-28T09:11:15;9.60;;;5.60;;
55537;SDS011;41383;51.418;7.286;2023-02-28T09:13:41;9.13;;;4.78;;
55537;SDS011;41383;51.418;7.286;2023-02-28T09:16:08;8.40;;;4.70;;
55537;SDS011;41383;51.418;7.286;2023-02-28T09:18:36;11.45;;;3.90;;
55537;SDS011;41383;51.418;7.286;2023-02-28T09:21:06;15.80;;;4.85;;
55537;SDS011;41383;51.418;7.286;2023-02-28T09:23:33;9.73;;;3.97;;
55537;SDS011;41383;51.418;7.286;2023-02-28T09:25:59;12.18;;;5.55;;
55537;SDS011;41383;51.418;7.286;2023-02-28T09:28:24;8.13;;;4.47;;
55537;SDS011;41383;51.418;7.286;2023-02-28T09:30:51;8.20;;;4.50;;
55537;SDS011;41383;51.418;7.286;2023-02-28T09:33:18;13.90;;;4.20;;
55537;SDS011;41383;51.418;7.286;2023-02-28T09:35:46;9.23;;;3.55;;
55537;SDS011;41383;51.418;7.286;2023-02-28T09:38:11;6.32;;;3.13;;
55537;SDS011;41383;51.418;7.286;2023-02-28T09:40:38;6.75;;;3.70;;
55537;SDS011;41383;51.418;7.286;2023-02-28T09:43:11;8.02;;;3.85;;
55537;SDS011;41383;51.418;7.286;2023-02-28T09:45:40;10.65;;;4.28;;
55537;SDS011;41383;51.418;7.286;2023-02-28T09:48:21;7.25;;;3.55;;
55537;SDS011;41383;51.418;7.286;2023-02-28T09:50:55;8.63;;;4.43;;
55537;SDS011;41383;51.418;7.286;2023-02-28T09:53:34;7.95;;;3.50;;
55537;SDS011;41383;51.418;7.286;2023-02-28T09:58:58;7.78;;;3.47;;
55537;SDS011;41383;51.418;7.286;2023-02-28T10:04:47;9.52;;;5.55;;
55537;SDS011;41383;51.418;7.286;2023-02-28T10:10:32;6.03;;;2.67;;
55537;SDS011;41383;51.418;7.286;2023-02-28T10:15:51;12.77;;;2.88;;
55537;SDS011;41383;51.418;7.286;2023-02-28T10:18:21;5.20;;;2.42;;
55537;SDS011;41383;51.418;7.286;2023-02-28T10:21:01;6.93;;;2.42;;
55537;SDS011;41383;51.418;7.286;2023-02-28T10:23:31;3.55;;;1.83;;
55537;SDS011;41383;51.418;7.286;2023-02-28T10:26:09;6.07;;;2.65;;
55537;SDS011;41383;51.418;7.286;2023-02-28T10:28:37;6.82;;;2.05;;
55537;SDS011;41383;51.418;7.286;2023-02-28T10:31:03;6.10;;;2.67;;
55537;SDS011;41383;51.418;7.286;2023-02-28T10:33:30;3.97;;;2.22;;
55537;SDS011;41383;51.418;7.286;2023-02-28T10:35:59;4.25;;;1.90;;
55537;SDS011;41383;51.418;7.286;2023-02-28T10:38:26;3.30;;;1.85;;
55537;SDS011;41383;51.418;7.286;2023-02-28T10:41:07;5.15;;;2.25;;
55537;SDS011;41383;51.418;7.286;2023-02-28T10:43:37;4.47;;;1.88;;
55537;SDS011;41383;51.418;7.286;2023-02-28T10:46:12;3.83;;;1.63;;
55537;SDS011;41383;51.418;7.286;2023-02-28T10:48:50;3.00;;;1.40;;
55537;SDS011;41383;51.418;7.286;2023-02-28T10:51:26;5.43;;;2.25;;
55537;SDS011;41383;51.418;7.286;2023-02-28T10:54:01;6.13;;;2.00;;
55537;SDS011;41383;51.418;7.286;2023-02-28T10:56:27;7.18;;;1.90;;
55537;SDS011;41383;51.418;7.286;2023-02-28T11:01:45;4.47;;;1.85;;
55537;SDS011;41383;51.418;7.286;2023-02-28T11:06:48;3.42;;;1.73;;
55537;SDS011;41383;51.418;7.286;2023-02-28T11:09:24;4.22;;;1.92;;
55537;SDS011;41383;51.418;7.286;2023-02-28T11:11:54;4.13;;;1.40;;
55537;SDS011;41383;51.418;7.286;2023-02-28T11:14:54;10.38;;;3.03;;
55537;SDS011;41383;51.418;7.286;2023-02-28T11:17:24;6.22;;;2.10;;
55537;SDS011;41383;51.418;7.286;2023-02-28T11:19:52;3.35;;;1.60;;
55537;SDS011;41383;51.418;7.286;2023-02-28T11:22:21;3.53;;;1.83;;
55537;SDS011;41383;51.418;7.286;2023-02-28T11:24:53;10.38;;;2.38;;
55537;SDS011;41383;51.418;7.286;2023-02-28T11:29:58;5.28;;;2.65;;
55537;SDS011;41383;51.418;7.286;2023-02-28T11:32:25;5.38;;;2.65;;
55537;SDS011;41383;51.418;7.286;2023-02-28T11:35:01;3.90;;;1.80;;
55537;SDS011;41383;51.418;7.286;2023-02-28T11:37:36;4.93;;;2.53;;
55537;SDS011;41383;51.418;7.286;2023-02-28T11:40:02;23.15;;;4.05;;
55537;SDS011;41383;51.418;7.286;2023-02-28T11:42:46;15.60;;;2.22;;
55537;SDS011;41383;51.418;7.286;2023-02-28T11:45:36;7.97;;;2.28;;
55537;SDS011;41383;51.418;7.286;2023-02-28T11:48:26;11.75;;;3.58;;
55537;SDS011;41383;51.418;7.286;2023-02-28T11:53:45;6.68;;;2.50;;
55537;SDS011;41383;51.418;7.286;2023-02-28T11:56:33;7.93;;;2.97;;
55537;SDS011;41383;51.418;7.286;2023-02-28T12:04:53;5.75;;;2.33;;
55537;SDS011;41383;51.418;7.286;2023-02-28T12:07:42;5.00;;;2.15;;
55537;SDS011;41383;51.418;7.286;2023-02-28T12:10:26;7.18;;;2.78;;
55537;SDS011;41383;51.418;7.286;2023-02-28T12:13:16;2.80;;;1.55;;
55537;SDS011;41383;51.418;7.286;2023-02-28T12:18:29;4.15;;;2.15;;
55537;SDS011;41383;51.418;7.286;2023-02-28T12:21:29;5.65;;;2.55;;
55537;SDS011;41383;51.418;7.286;2023-02-28T12:27:00;5.93;;;2.72;;
55537;SDS011;41383;51.418;7.286;2023-02-28T12:29:36;4.10;;;2.13;;
55537;SDS011;41383;51.418;7.286;2023-02-28T12:37:34;4.70;;;2.45;;
55537;SDS011;41383;51.418;7.286;2023-02-28T12:40:17;5.65;;;1.98;;
55537;SDS011;41383;51.418;7.286;2023-02-28T12:42:47;3.40;;;1.77;;
55537;SDS011;41383;51.418;7.286;2023-02-28T12:45:18;5.35;;;2.22;;
55537;SDS011;41383;51.418;7.286;2023-02-28T12:47:48;5.22;;;3.00;;
55537;SDS011;41383;51.418;7.286;2023-02-28T12:50:17;4.97;;;1.92;;
55537;SDS011;41383;51.418;7.286;2023-02-28T12:55:28;4.75;;;2.30;;
55537;SDS011;41383;51.418;7.286;2023-02-28T13:03:39;7.00;;;3.50;;
55537;SDS011;41383;51.418;7.286;2023-02-28T13:06:28;3.17;;;2.05;;
55537;SDS011;41383;51.418;7.286;2023-02-28T13:09:08;6.20;;;3.30;;
55537;SDS011;41383;51.418;7.286;2023-02-28T13:11:45;7.40;;;3.33;;
55537;SDS011;41383;51.418;7.286;2023-02-28T13:14:22;5.63;;;2.63;;
55537;SDS011;41383;51.418;7.286;2023-02-28T13:19:22;5.40;;;2.30;;
55537;SDS011;41383;51.418;7.286;2023-02-28T13:21:50;4.80;;;2.70;;
55537;SDS011;41383;51.418;7.286;2023-02-28T13:29:38;5.30;;;2.80;;
55537;SDS011;41383;51.418;7.286;2023-02-28T13:34:33;5.63;;;3.03;;
55537;SDS011;41383;51.418;7.286;2023-02-28T13:47:29;5.93;;;3.00;;
55537;SDS011;41383;51.418;7.286;2023-02-28T13:52:48;5.13;;;2.65;;
55537;SDS011;41383;51.418;7.286;2023-02-28T13:55:25;6.97;;;2.17;;
55537;SDS011;41383;51.418;7.286;2023-02-28T14:04:06;13.50;;;3.20;;
55537;SDS011;41383;51.418;7.286;2023-02-28T14:06:57;5.15;;;2.95;;
55537;SDS011;41383;51.418;7.286;2023-02-28T14:09:34;6.43;;;2.95;;
55537;SDS011;41383;51.418;7.286;2023-02-28T14:17:55;5.18;;;2.80;;
55537;SDS011;41383;51.418;7.286;2023-02-28T14:20:22;6.32;;;2.92;;
55537;SDS011;41383;51.418;7.286;2023-02-28T14:22:58;10.93;;;3.20;;
55537;SDS011;41383;51.418;7.286;2023-02-28T14:25:46;6.90;;;3.47;;
55537;SDS011;41383;51.418;7.286;2023-02-28T14:28:40;6.32;;;3.17;;
55537;SDS011;41383;51.418;7.286;2023-02-28T14:31:37;8.15;;;2.75;;
55537;SDS011;41383;51.418;7.286;2023-02-28T14:36:37;8.15;;;3.58;;
55537;SDS011;41383;51.418;7.286;2023-02-28T14:41:41;6.10;;;3.38;;
55537;SDS011;41383;51.418;7.286;2023-02-28T14:44:16;9.55;;;3.90;;
55537;SDS011;41383;51.418;7.286;2023-02-28T14:46:56;5.78;;;2.72;;
55537;SDS011;41383;51.418;7.286;2023-02-28T14:49:36;8.27;;;3.28;;
55537;SDS011;41383;51.418;7.286;2023-02-28T14:52:11;23.58;;;4.95;;
55537;SDS011;41383;51.418;7.286;2023-02-28T14:54:40;9.73;;;3.13;;
55537;SDS011;41383;51.418;7.286;2023-02-28T14:57:06;8.15;;;3.30;;
55537;SDS011;41383;51.418;7.286;2023-02-28T14:59:56;10.90;;;4.15;;
55537;SDS011;41383;51.418;7.286;2023-02-28T15:02:39;7.43;;;3.05;;
55537;SDS011;41383;51.418;7.286;2023-02-28T15:07:46;6.45;;;3.42;;
55537;SDS011;41383;51.418;7.286;2023-02-28T15:15:18;8.30;;;3.70;;
55537;SDS011;41383;51.418;7.286;2023-02-28T15:17:46;5.47;;;2.90;;
55537;SDS011;41383;51.418;7.286;2023-02-28T15:20:15;10.15;;;5.55;;
55537;SDS011;41383;51.418;7.286;2023-02-28T15:22:43;10.98;;;4.47;;
55537;SDS011;41383;51.418;7.286;2023-02-28T15:25:11;7.68;;;3.08;;
55537;SDS011;41383;51.418;7.286;2023-02-28T15:27:42;7.65;;;3.70;;
55537;SDS011;41383;51.418;7.286;2023-02-28T15:30:14;10.43;;;4.22;;
55537;SDS011;41383;51.418;7.286;2023-02-28T15:35:36;10.20;;;4.13;;
55537;SDS011;41383;51.418;7.286;2023-02-28T15:40:41;6.68;;;3.63;;
55537;SDS011;41383;51.418;7.286;2023-02-28T15:43:22;10.60;;;4.35;;
55537;SDS011;41383;51.418;7.286;2023-02-28T15:45:51;7.63;;;3.30;;
55537;SDS011;41383;51.418;7.286;2023-02-28T15:48:24;5.30;;;2.88;;
55537;SDS011;41383;51.418;7.286;2023-02-28T15:50:53;10.02;;;4.18;;
55537;SDS011;41383;51.418;7.286;2023-02-28T15:53:22;8.98;;;2.85;;
55537;SDS011;41383;51.418;7.286;2023-02-28T15:55:52;7.47;;;3.42;;
55537;SDS011;41383;51.418;7.286;2023-02-28T15:58:20;6.30;;;2.97;;
55537;SDS011;41383;51.418;7.286;2023-02-28T16:00:50;6.03;;;3.40;;
55537;SDS011;41383;51.418;7.286;2023-02-28T16:03:37;6.30;;;3.35;;
55537;SDS011;41383;51.418;7.286;2023-02-28T16:08:51;8.63;;;3.63;;
55537;SDS011;41383;51.418;7.286;2023-02-28T16:11:18;6.72;;;2.95;;
55537;SDS011;41383;51.418;7.286;2023-02-28T16:13:45;6.93;;;3.15;;
55537;SDS011;41383;51.418;7.286;2023-02-28T16:16:14;6.00;;;3.27;;
55537;SDS011;41383;51.418;7.286;2023-02-28T16:18:41;6.43;;;3.72;;
55537;SDS011;41383;51.418;7.286;2023-02-28T16:21:08;7.38;;;3.90;;
55537;SDS011;41383;51.418;7.286;2023-02-28T16:23:33;6.82;;;3.58;;
55537;SDS011;41383;51.418;7.286;2023-02-28T16:25:58;7.03;;;2.90;;
55537;SDS011;41383;51.418;7.286;2023-02-28T16:28:25;5.78;;;3.10;;
55537;SDS011;41383;51.418;7.286;2023-02-28T16:30:57;9.90;;;3.33;;
55537;SDS011;41383;51.418;7.286;2023-02-28T16:33:25;6.13;;;4.05;;
55537;SDS011;41383;51.418;7.286;2023-02-28T16:35:50;6.17;;;4.00;;
55537;SDS011;41383;51.418;7.286;2023-02-28T16:38:15;7.40;;;3.93;;
55537;SDS011;41383;51.418;7.286;2023-02-28T16:40:40;7.07;;;3.67;;
55537;SDS011;41383;51.418;7.286;2023-02-28T16:43:17;8.88;;;4.10;;
55537;SDS011;41383;51.418;7.286;2023-02-28T16:45:46;7.10;;;3.17;;
55537;SDS011;41383;51.418;7.286;2023-02-28T16:48:13;7.28;;;3.63;;
55537;SDS011;41383;51.418;7.286;2023-02-28T16:50:40;10.23;;;3.38;;
55537;SDS011;41383;51.418;7.286;2023-02-28T16:53:06;8.73;;;3.40;;
55537;SDS011;41383;51.418;7.286;2023-02-28T16:55:31;5.60;;;3.70;;
55537;SDS011;41383;51.418;7.286;2023-02-28T16:57:57;6.35;;;4.07;;
55537;SDS011;41383;51.418;7.286;2023-02-28T17:00:25;19.02;;;6.85;;
55537;SDS011;41383;51.418;7.286;2023-02-28T17:02:52;17.67;;;4.88;;